Time;durP1;ratioP1;P1;durP2;ratioP2;P2;SDS_P1;SDS_P2;PMS_P1;PMS_P2;Temp;Humidity;BMP_temperature;BMP_pressure;BME280_temperature;BME280_humidity;BME280_pressure;Samples;Min_cycle;Max_cycle;Signal;HPM_P1;HPM_P2
2021/01/17 00:00:16;;;;;;;24.03;12.93;;;0.90;88.80;;;;;;5005513;28;20038;-91
2021/01/17 00:02:50;;;;;;;25.70;13.80;;;1.00;88.80;;;;;;5005839;28;20045;-92
2021/01/17 00:05:20;;;;;;;23.90;12.80;;;1.00;88.90;;;;;;5005717;28;20018;-91
2021/01/17 00:07:45;;;;;;;25.33;11.60;;;1.00;88.90;;;;;;5005716;28;20014;-92
2021/01/17 00:10:13;;;;;;;25.60;12.30;;;1.00;88.90;;;;;;5005606;28;20061;-91
2021/01/17 00:12:39;;;;;;;25.27;12.87;;;1.00;88.80;;;;;;5005308;28;20014;-92
2021/01/17 00:15:08;;;;;;;23.43;12.40;;;1.00;89.10;;;;;;5005483;28;20025;-91
2021/01/17 00:17:34;;;;;;;24.02;12.57;;;1.00;89.00;;;;;;5005460;28;20018;-91
2021/01/17 00:20:00;;;;;;;22.53;11.93;;;0.90;89.20;;;;;;5005558;28;20014;-91
2021/01/17 00:22:25;;;;;;;23.63;12.17;;;0.90;89.40;;;;;;5005325;28;20014;-92
2021/01/17 00:24:51;;;;;;;22.90;12.13;;;0.90;89.10;;;;;;5005194;28;20033;-90
2021/01/17 00:27:17;;;;;;;22.37;11.47;;;0.90;89.10;;;;;;5005378;28;20039;-92
2021/01/17 00:29:42;;;;;;;23.50;11.80;;;0.90;89.30;;;;;;5005081;28;20038;-91
2021/01/17 00:32:12;;;;;;;22.23;11.57;;;0.90;89.30;;;;;;5005136;28;20021;-91
2021/01/17 00:34:38;;;;;;;21.95;11.07;;;0.80;89.40;;;;;;5005012;28;20014;-91
2021/01/17 00:37:04;;;;;;;23.43;12.20;;;0.90;89.50;;;;;;5005141;28;20018;-91
2021/01/17 00:39:30;;;;;;;22.03;11.60;;;0.80;89.30;;;;;;5005185;28;20041;-91
2021/01/17 00:41:56;;;;;;;23.03;10.90;;;0.90;89.10;;;;;;5004978;28;20022;-92
2021/01/17 00:44:21;;;;;;;23.33;10.63;;;0.90;89.30;;;;;;5005049;28;20018;-91
2021/01/17 00:46:47;;;;;;;22.47;10.73;;;0.90;89.20;;;;;;5005041;28;20106;-91
2021/01/17 00:49:13;;;;;;;23.07;11.90;;;0.90;89.80;;;;;;5004876;28;20058;-93
2021/01/17 00:51:44;;;;;;;22.60;11.47;;;0.90;89.20;;;;;;5004942;28;20045;-90
2021/01/17 00:54:10;;;;;;;22.30;11.17;;;0.80;89.70;;;;;;5004943;28;20057;-91
2021/01/17 00:56:36;;;;;;;22.60;10.97;;;0.90;89.40;;;;;;5005001;28;20037;-91
2021/01/17 00:59:03;;;;;;;22.33;11.23;;;0.90;89.30;;;;;;5004775;28;20109;-91
2021/01/17 01:01:36;;;;;;;22.70;10.80;;;1.00;89.10;;;;;;5004432;28;20013;-89
2021/01/17 01:04:02;;;;;;;20.50;10.13;;;0.90;89.20;;;;;;5004572;28;20031;-92
2021/01/17 01:06:28;;;;;;;20.83;10.73;;;0.90;89.20;;;;;;5004583;28;20046;-91
2021/01/17 01:08:53;;;;;;;22.73;11.20;;;0.90;89.30;;;;;;5004619;28;20045;-92
2021/01/17 01:11:20;;;;;;;23.70;11.73;;;1.00;89.20;;;;;;5004738;28;20014;-91
2021/01/17 01:13:46;;;;;;;23.53;10.77;;;0.90;89.40;;;;;;5004388;28;20017;-91
2021/01/17 01:16:14;;;;;;;22.17;11.47;;;1.00;89.20;;;;;;5004530;28;20019;-91
2021/01/17 01:18:40;;;;;;;21.67;11.47;;;1.00;89.20;;;;;;5004469;28;20021;-90
2021/01/17 01:21:06;;;;;;;21.77;10.70;;;1.00;89.40;;;;;;5004348;28;20042;-91
2021/01/17 01:23:31;;;;;;;22.20;11.60;;;1.00;89.30;;;;;;5004309;28;20010;-91
2021/01/17 01:25:57;;;;;;;22.63;11.23;;;1.00;89.00;;;;;;5004253;28;20022;-91
2021/01/17 01:28:23;;;;;;;21.13;10.73;;;1.00;89.10;;;;;;5004147;28;20058;-91
2021/01/17 01:30:49;;;;;;;23.07;11.20;;;1.00;89.00;;;;;;5004158;28;20010;-91
2021/01/17 01:33:15;;;;;;;22.13;11.23;;;1.00;89.50;;;;;;5004016;28;20026;-92
2021/01/17 01:35:40;;;;;;;23.00;11.93;;;1.00;89.00;;;;;;5003857;28;20027;-91
2021/01/17 01:38:08;;;;;;;24.00;11.63;;;1.00;89.00;;;;;;5004012;28;20041;-91
2021/01/17 01:40:33;;;;;;;22.03;11.30;;;1.00;89.20;;;;;;5004030;28;20045;-91
2021/01/17 01:42:59;;;;;;;23.83;11.73;;;1.00;89.20;;;;;;5003846;28;20014;-90
2021/01/17 01:45:24;;;;;;;21.40;10.80;;;1.00;89.00;;;;;;5003869;28;20066;-92
2021/01/17 01:47:50;;;;;;;22.77;11.20;;;1.00;89.00;;;;;;5003304;28;20069;-91
2021/01/17 01:50:16;;;;;;;22.33;10.93;;;1.00;89.10;;;;;;5003617;28;20103;-91
2021/01/17 01:52:42;;;;;;;21.60;11.23;;;1.00;89.20;;;;;;5003876;28;20025;-91
2021/01/17 01:55:08;;;;;;;21.73;11.10;;;0.90;90.00;;;;;;5003711;28;20007;-91
2021/01/17 01:57:35;;;;;;;24.23;11.37;;;1.00;89.20;;;;;;5003815;28;20015;-92
2021/01/17 02:00:04;;;;;;;22.93;11.80;;;1.00;89.20;;;;;;5003326;28;20038;-91
2021/01/17 02:02:39;;;;;;;23.73;11.80;;;1.00;89.00;;;;;;5003413;28;20018;-91
2021/01/17 02:05:05;;;;;;;22.60;11.57;;;1.00;89.10;;;;;;5003500;28;20018;-91
2021/01/17 02:08:13;;;;;;;22.73;11.53;;;0.90;89.10;;;;;;5003455;28;20010;-92
2021/01/17 02:10:41;;;;;;;21.92;11.48;;;1.00;89.10;;;;;;4989917;28;20049;-91
2021/01/17 02:13:28;;;;;;;23.27;12.10;;;1.00;89.10;;;;;;5003335;28;20021;-91
2021/01/17 02:15:54;;;;;;;22.77;11.73;;;1.00;89.40;;;;;;5003127;28;20017;-91
2021/01/17 02:18:22;;;;;;;24.07;11.30;;;1.00;89.00;;;;;;5003198;28;20018;-91
2021/01/17 02:20:50;;;;;;;22.70;12.30;;;1.10;88.90;;;;;;5003144;28;20010;-90
2021/01/17 02:23:21;;;;;;;23.65;12.13;;;1.00;88.90;;;;;;5003256;28;20018;-90
2021/01/17 02:25:47;;;;;;;23.33;11.10;;;1.00;89.00;;;;;;5003102;28;20015;-90
2021/01/17 02:28:16;;;;;;;24.37;12.43;;;1.00;89.00;;;;;;5002990;28;20057;-90
2021/01/17 02:30:46;;;;;;;23.40;12.13;;;1.00;89.00;;;;;;5003052;28;20011;-90
2021/01/17 02:33:16;;;;;;;23.50;11.93;;;1.00;89.20;;;;;;5003013;28;20041;-92
2021/01/17 02:35:44;;;;;;;22.93;11.73;;;1.00;89.00;;;;;;5003074;28;20015;-89
2021/01/17 02:38:36;;;;;;;23.60;11.90;;;1.00;89.10;;;;;;5002931;28;20018;-92
2021/01/17 02:41:38;;;;;;;23.13;12.47;;;1.00;88.90;;;;;;5002929;28;20018;-91
2021/01/17 02:44:05;;;;;;;25.17;12.97;;;1.00;89.00;;;;;;5002837;28;20010;-92
2021/01/17 02:46:31;;;;;;;23.13;11.83;;;1.00;89.20;;;;;;5002910;28;20015;-90
2021/01/17 02:48:56;;;;;;;24.87;12.30;;;1.00;89.00;;;;;;5002836;28;20045;-90
2021/01/17 02:51:25;;;;;;;25.30;12.50;;;1.00;88.80;;;;;;5002735;28;20027;-91
2021/01/17 02:54:01;;;;;;;23.70;11.52;;;1.00;89.00;;;;;;5002823;28;20038;-92
2021/01/17 02:56:31;;;;;;;24.93;11.67;;;1.00;89.30;;;;;;5002776;28;20010;-91
2021/01/17 02:58:57;;;;;;;;;;;1.00;89.20;;;;;;5002058;28;20082;-91
2021/01/17 03:01:27;;;;;;;24.00;11.77;;;1.00;89.30;;;;;;5002480;28;19902;-92
2021/01/17 03:04:00;;;;;;;24.40;12.17;;;1.00;89.20;;;;;;5002485;28;20022;-92
2021/01/17 03:06:26;;;;;;;22.70;11.53;;;1.00;89.20;;;;;;5002738;28;20033;-93
2021/01/17 03:08:53;;;;;;;25.27;13.00;;;1.00;89.10;;;;;;5002531;28;20030;-91
2021/01/17 03:11:20;;;;;;;24.20;12.03;;;1.00;89.10;;;;;;5002637;28;20010;-92
2021/01/17 03:13:46;;;;;;;26.30;12.47;;;1.00;89.20;;;;;;5002430;28;20014;-90
2021/01/17 03:16:12;;;;;;;24.83;12.63;;;1.00;89.20;;;;;;5002557;28;20014;-90
2021/01/17 03:18:38;;;;;;;25.80;12.73;;;0.90;89.80;;;;;;5002588;28;20037;-90
2021/01/17 03:21:03;;;;;;;27.37;13.57;;;1.00;89.20;;;;;;5002592;28;20021;-90
2021/01/17 03:23:29;;;;;;;25.20;12.53;;;0.90;89.30;;;;;;5002390;28;20030;-90
2021/01/17 03:25:54;;;;;;;24.17;12.40;;;0.90;89.30;;;;;;5002494;28;20082;-89
2021/01/17 03:28:20;;;;;;;25.30;12.80;;;0.90;89.40;;;;;;5002322;28;20053;-90
2021/01/17 03:30:45;;;;;;;26.23;13.27;;;0.80;89.50;;;;;;5002294;28;20110;-90
2021/01/17 03:33:11;;;;;;;24.80;12.80;;;0.90;89.70;;;;;;5002232;28;20018;-90
2021/01/17 03:35:36;;;;;;;26.07;12.53;;;0.90;89.80;;;;;;5002240;28;20038;-90
2021/01/17 03:38:02;;;;;;;25.43;13.40;;;0.90;89.70;;;;;;5002306;28;20042;-90
2021/01/17 03:40:28;;;;;;;26.63;13.67;;;0.90;89.70;;;;;;5002398;28;20022;-90
2021/01/17 03:42:54;;;;;;;26.67;13.53;;;0.90;89.80;;;;;;5001977;28;20089;-89
2021/01/17 03:45:19;;;;;;;26.60;13.60;;;0.90;89.50;;;;;;5002311;28;20018;-90
2021/01/17 03:47:45;;;;;;;25.57;13.40;;;0.90;89.50;;;;;;5002184;28;20045;-90
2021/01/17 03:50:11;;;;;;;26.23;14.20;;;0.80;89.70;;;;;;5002479;28;20046;-89
2021/01/17 03:52:38;;;;;;;26.33;13.27;;;0.90;89.70;;;;;;5002039;28;20022;-90
2021/01/17 03:55:04;;;;;;;26.97;14.80;;;0.90;89.60;;;;;;5001956;28;20018;-89
2021/01/17 03:57:30;;;;;;;26.40;14.10;;;0.90;89.50;;;;;;5002147;28;20090;-89
2021/01/17 03:59:55;;;;;;;26.23;13.40;;;0.90;89.50;;;;;;5002005;28;20071;-91
2021/01/17 04:02:21;;;;;;;27.17;14.50;;;0.90;89.60;;;;;;5001876;28;20031;-90
2021/01/17 04:04:46;;;;;;;28.57;14.50;;;0.90;89.70;;;;;;5001790;28;20010;-90
2021/01/17 04:07:12;;;;;;;29.10;14.70;;;0.90;89.50;;;;;;5001866;28;20021;-90
2021/01/17 04:09:37;;;;;;;29.60;14.73;;;0.90;89.70;;;;;;5001767;28;20026;-89
2021/01/17 04:12:03;;;;;;;31.20;15.70;;;0.90;89.70;;;;;;5005544;28;20042;-91
2021/01/17 04:14:29;;;;;;;26.33;13.63;;;0.90;89.70;;;;;;5005568;28;20029;-91
2021/01/17 04:16:54;;;;;;;26.87;14.03;;;0.90;89.50;;;;;;5005630;28;20014;-90
2021/01/17 04:19:20;;;;;;;30.20;15.20;;;0.90;89.40;;;;;;5005270;28;20011;-90
2021/01/17 04:21:46;;;;;;;27.60;14.57;;;1.00;89.30;;;;;;5005470;28;20029;-91
2021/01/17 04:24:12;;;;;;;27.23;14.93;;;1.00;89.30;;;;;;5005124;28;20015;-91
2021/01/17 04:26:38;;;;;;;27.10;13.87;;;1.00;89.40;;;;;;5005534;28;20082;-90
2021/01/17 04:29:04;;;;;;;28.00;14.50;;;1.00;89.40;;;;;;5005164;28;20042;-90
2021/01/17 04:31:48;;;;;;;29.03;14.40;;;1.00;89.30;;;;;;5004880;28;20010;-90
2021/01/17 04:34:13;;;;;;;26.23;14.63;;;1.00;89.40;;;;;;5004782;28;20026;-89
2021/01/17 04:36:39;;;;;;;28.90;15.07;;;1.00;89.20;;;;;;5005029;28;20014;-90
2021/01/17 04:39:05;;;;;;;28.23;14.47;;;1.00;89.20;;;;;;5005107;28;20010;-90
2021/01/17 04:41:34;;;;;;;28.80;14.57;;;1.00;89.30;;;;;;5005175;28;20018;-90
2021/01/17 04:44:04;;;;;;;29.00;14.63;;;1.00;89.20;;;;;;5004748;28;20031;-91
2021/01/17 04:46:30;;;;;;;28.70;15.47;;;1.00;89.20;;;;;;5004845;28;20042;-91
2021/01/17 04:48:59;;;;;;;28.43;15.63;;;1.00;89.60;;;;;;5004760;28;20030;-91
2021/01/17 04:51:27;;;;;;;30.05;15.70;;;0.90;89.50;;;;;;5004934;28;20037;-90
2021/01/17 04:53:53;;;;;;;28.80;16.07;;;0.90;89.50;;;;;;5004482;28;20042;-91
2021/01/17 04:56:26;;;;;;;30.20;15.60;;;1.00;89.90;;;;;;5004706;28;20014;-91
2021/01/17 04:59:12;;;;;;;28.77;15.20;;;1.00;89.90;;;;;;5004653;28;20102;-89
2021/01/17 05:01:41;;;;;;;28.17;15.07;;;1.00;89.70;;;;;;5004541;28;20011;-91
2021/01/17 05:04:31;;;;;;;31.45;16.75;;;1.10;89.50;;;;;;5004478;28;20007;-90
2021/01/17 05:06:58;;;;;;;30.93;15.87;;;1.00;89.50;;;;;;5004705;28;20015;-90
2021/01/17 05:09:30;;;;;;;30.10;15.83;;;1.00;90.00;;;;;;5004440;28;20050;-91
2021/01/17 05:12:10;;;;;;;29.73;15.50;;;1.00;89.60;;;;;;5004603;28;20010;-91
2021/01/17 05:14:43;;;;;;;32.80;16.27;;;1.00;89.60;;;;;;5004449;28;20015;-90
2021/01/17 05:17:09;;;;;;;31.33;16.37;;;1.10;89.50;;;;;;5004693;28;20018;-90
2021/01/17 05:19:37;;;;;;;31.57;16.87;;;1.10;89.40;;;;;;5004215;28;20087;-91
2021/01/17 05:22:05;;;;;;;29.87;16.80;;;1.00;89.70;;;;;;5003337;28;20029;-90
2021/01/17 05:24:31;;;;;;;30.13;16.43;;;1.00;89.70;;;;;;5004255;28;20031;-90
2021/01/17 05:26:59;;;;;;;29.20;15.83;;;1.00;89.90;;;;;;5004155;28;20015;-90
2021/01/17 05:29:29;;;;;;;33.50;17.63;;;0.90;89.90;;;;;;5004014;28;20093;-91
2021/01/17 05:31:56;;;;;;;29.87;16.07;;;1.00;90.00;;;;;;5004027;28;20014;-90
2021/01/17 05:34:23;;;;;;;31.50;16.03;;;0.90;90.00;;;;;;5003983;28;20025;-90
2021/01/17 05:37:10;;;;;;;31.30;16.03;;;1.00;90.20;;;;;;5004251;28;20041;-90
2021/01/17 05:39:56;;;;;;;31.83;15.43;;;1.00;90.00;;;;;;5004070;28;20006;-92
2021/01/17 05:42:30;;;;;;;28.27;15.33;;;1.00;90.00;;;;;;5003941;28;20010;-89
2021/01/17 05:45:15;;;;;;;30.13;15.53;;;1.00;90.00;;;;;;5003763;28;20016;-90
2021/01/17 05:47:51;;;;;;;30.67;16.10;;;1.00;90.00;;;;;;5003747;28;20030;-90
2021/01/17 05:50:16;;;;;;;30.47;16.17;;;1.00;90.00;;;;;;5004059;28;20085;-91
2021/01/17 05:52:42;;;;;;;31.43;16.57;;;1.00;90.00;;;;;;5003679;28;20037;-90
2021/01/17 05:55:15;;;;;;;31.80;17.40;;;1.00;90.00;;;;;;5003656;28;20038;-91
2021/01/17 05:57:40;;;;;;;30.30;15.83;;;1.00;90.10;;;;;;5003689;28;20021;-91
2021/01/17 06:00:06;;;;;;;31.13;16.63;;;0.90;90.30;;;;;;5003531;28;20046;-91
2021/01/17 06:02:33;;;;;;;30.10;15.43;;;0.90;90.30;;;;;;5003224;28;20061;-91
2021/01/17 06:05:04;;;;;;;30.37;15.43;;;0.80;90.30;;;;;;5003395;28;20019;-91
2021/01/17 06:07:31;;;;;;;32.27;16.37;;;0.80;90.40;;;;;;5003697;28;20032;-91
2021/01/17 06:09:57;;;;;;;30.90;15.83;;;0.80;90.40;;;;;;5003268;28;20014;-91
2021/01/17 06:12:38;;;;;;;31.80;16.10;;;0.80;90.60;;;;;;5003339;28;20022;-90
2021/01/17 06:15:10;;;;;;;29.93;15.87;;;0.90;90.40;;;;;;5003306;28;20042;-90
2021/01/17 06:17:46;;;;;;;30.27;15.80;;;0.90;90.60;;;;;;5003429;28;20010;-90
2021/01/17 06:20:20;;;;;;;30.20;15.57;;;0.90;90.60;;;;;;5003345;28;20017;-91
2021/01/17 06:22:47;;;;;;;29.77;15.63;;;0.90;90.50;;;;;;5003104;28;20010;-90
2021/01/17 06:25:14;;;;;;;30.57;16.50;;;0.80;90.60;;;;;;5003246;28;20033;-90
2021/01/17 06:27:39;;;;;;;29.40;15.70;;;0.90;90.50;;;;;;5003251;28;20022;-90
2021/01/17 06:30:18;;;;;;;28.73;15.93;;;0.90;90.40;;;;;;5003321;28;20018;-91
2021/01/17 06:32:46;;;;;;;28.73;15.00;;;0.90;90.60;;;;;;5002898;28;20022;-90
2021/01/17 06:35:12;;;;;;;28.13;15.30;;;1.00;90.40;;;;;;5003040;28;20086;-91
2021/01/17 06:37:38;;;;;;;30.27;16.13;;;1.00;90.30;;;;;;5003148;28;20017;-90
2021/01/17 06:40:07;;;;;;;30.77;15.03;;;1.00;90.30;;;;;;5002945;28;20010;-91
2021/01/17 06:42:33;;;;;;;30.33;14.83;;;1.00;90.30;;;;;;5003066;28;20030;-90
2021/01/17 06:44:59;;;;;;;30.30;16.53;;;1.00;90.30;;;;;;5002810;28;20021;-91
2021/01/17 06:47:26;;;;;;;30.00;16.43;;;1.00;90.30;;;;;;5002818;28;20014;-90
2021/01/17 06:49:56;;;;;;;31.43;15.70;;;1.00;90.20;;;;;;5002836;28;20041;-91
2021/01/17 06:52:22;;;;;;;;;;;1.00;90.30;;;;;;5003164;28;20017;-90
2021/01/17 06:54:52;;;;;;;30.23;15.73;;;1.00;90.30;;;;;;5002649;28;19893;-90
2021/01/17 06:57:19;;;;;;;32.27;17.37;;;1.00;90.40;;;;;;5002841;28;20020;-90
2021/01/17 06:59:47;;;;;;;32.60;17.10;;;0.90;90.60;;;;;;5002526;28;20042;-90
2021/01/17 07:02:13;;;;;;;30.17;15.40;;;0.90;90.60;;;;;;5002474;28;20034;-90
2021/01/17 07:04:57;;;;;;;32.27;17.37;;;0.90;90.50;;;;;;5002439;28;20074;-90
2021/01/17 07:07:54;;;;;;;31.63;16.37;;;0.90;90.40;;;;;;5002750;28;20030;-90
2021/01/17 07:10:22;;;;;;;32.67;17.67;;;0.90;90.40;;;;;;5002719;28;20074;-90
2021/01/17 07:12:58;;;;;;;33.63;16.70;;;0.90;90.40;;;;;;5002604;28;20034;-90
2021/01/17 07:15:26;;;;;;;34.87;17.93;;;0.90;90.40;;;;;;5002776;28;20030;-90
2021/01/17 07:18:00;;;;;;;36.13;17.67;;;0.90;90.40;;;;;;5002490;28;20034;-91
2021/01/17 07:20:28;;;;;;;37.87;17.90;;;0.90;90.60;;;;;;5002629;28;20049;-90
2021/01/17 07:22:57;;;;;;;33.78;17.50;;;0.90;90.50;;;;;;5002520;28;20123;-91
2021/01/17 07:25:24;;;;;;;35.25;17.88;;;0.90;90.60;;;;;;5002225;28;20019;-91
2021/01/17 07:28:05;;;;;;;37.87;17.87;;;0.90;90.60;;;;;;5002400;28;20011;-90
2021/01/17 07:30:46;;;;;;;37.53;19.03;;;0.90;90.50;;;;;;5002255;28;20043;-90
2021/01/17 07:33:13;;;;;;;37.13;18.07;;;0.80;90.70;;;;;;5002215;28;20038;-90
2021/01/17 07:35:43;;;;;;;36.60;18.43;;;0.90;90.50;;;;;;5002435;28;20021;-91
2021/01/17 07:38:16;;;;;;;37.10;20.65;;;0.90;90.50;;;;;;5002377;28;20022;-90
2021/01/17 07:40:56;;;;;;;40.70;18.83;;;0.90;90.60;;;;;;5002403;28;20030;-90
2021/01/17 07:43:41;;;;;;;38.60;18.77;;;0.90;90.60;;;;;;5002334;28;20018;-91
2021/01/17 07:46:12;;;;;;;40.90;20.17;;;0.90;90.60;;;;;;5004726;28;20021;-91
2021/01/17 07:48:39;;;;;;;38.83;18.87;;;0.90;90.70;;;;;;5005880;28;20030;-91
2021/01/17 07:51:12;;;;;;;39.13;19.13;;;0.90;90.60;;;;;;5006043;28;20040;-90
2021/01/17 07:53:38;;;;;;;45.30;21.60;;;0.90;90.60;;;;;;5005744;28;20018;-91
2021/01/17 07:56:25;;;;;;;41.80;20.43;;;0.90;90.60;;;;;;5005842;28;20039;-91
2021/01/17 07:58:52;;;;;;;42.20;20.03;;;1.00;90.60;;;;;;5005698;28;20038;-90
2021/01/17 08:01:40;;;;;;;42.83;20.70;;;0.90;90.70;;;;;;5005603;28;20034;-90
2021/01/17 08:04:05;;;;;;;41.60;20.03;;;0.90;90.80;;;;;;5005638;28;20014;-90
2021/01/17 08:06:34;;;;;;;42.33;20.57;;;0.90;90.80;;;;;;5005846;28;20022;-90
2021/01/17 08:09:06;;;;;;;42.70;21.42;;;0.90;90.70;;;;;;5005724;28;20057;-91
2021/01/17 08:11:45;;;;;;;44.20;20.93;;;0.90;90.80;;;;;;5005759;28;20014;-90
2021/01/17 08:14:26;;;;;;;46.28;21.23;;;0.90;90.60;;;;;;5005533;28;20029;-90
2021/01/17 08:17:17;;;;;;;45.67;21.40;;;0.90;90.60;;;;;;5005564;28;20017;-90
2021/01/17 08:19:53;;;;;;;43.37;21.23;;;1.00;90.60;;;;;;5005459;28;20018;-91
2021/01/17 08:22:21;;;;;;;45.97;21.90;;;1.00;90.60;;;;;;5005576;28;20053;-90
2021/01/17 08:24:54;;;;;;;49.60;22.80;;;1.00;90.50;;;;;;5005129;28;20010;-89
2021/01/17 08:27:34;;;;;;;49.30;22.07;;;1.00;90.70;;;;;;5005388;28;20014;-90
2021/01/17 08:30:03;;;;;;;50.87;22.80;;;1.00;90.70;;;;;;5005375;28;20022;-90
2021/01/17 08:32:35;;;;;;;51.00;23.50;;;1.00;90.70;;;;;;5005043;28;20098;-91
2021/01/17 08:35:19;;;;;;;47.07;22.07;;;1.00;90.80;;;;;;5005174;28;20018;-91
2021/01/17 08:37:46;;;;;;;45.93;21.37;;;1.00;90.90;;;;;;5005235;28;20019;-92
2021/01/17 08:40:27;;;;;;;50.17;23.10;;;0.90;90.90;;;;;;5005178;28;20057;-91
2021/01/17 08:42:54;;;;;;;47.13;21.03;;;0.90;91.00;;;;;;5005154;28;20034;-92
2021/01/17 08:45:20;;;;;;;46.27;21.27;;;0.90;91.00;;;;;;5004916;28;20041;-92
2021/01/17 08:48:15;;;;;;;48.37;22.17;;;0.90;91.00;;;;;;5005063;28;20014;-90
2021/01/17 08:50:41;;;;;;;43.57;19.63;;;0.90;91.30;;;;;;4996496;28;20026;-93
2021/01/17 08:53:11;;;;;;;50.27;22.33;;;0.90;91.20;;;;;;5004826;28;20017;-92
2021/01/17 08:55:38;;;;;;;50.77;21.47;;;1.00;90.90;;;;;;5004677;28;20018;-93
2021/01/17 08:58:04;;;;;;;48.00;21.87;;;0.90;91.40;;;;;;5005025;28;20010;-92
2021/01/17 09:00:48;;;;;;;51.30;21.97;;;1.00;90.90;;;;;;5004702;28;20041;-91
2021/01/17 09:03:28;;;;;;;50.57;21.83;;;1.00;91.00;;;;;;5004732;28;20029;-92
2021/01/17 09:05:57;;;;;;;53.33;22.23;;;1.00;90.80;;;;;;5004684;28;20103;-92
2021/01/17 09:08:22;;;;;;;50.67;23.27;;;1.00;91.20;;;;;;5004612;28;20030;-93
2021/01/17 09:10:48;;;;;;;53.63;23.07;;;1.00;91.40;;;;;;5004867;28;20021;-91
2021/01/17 09:13:26;;;;;;;54.47;23.00;;;1.00;91.20;;;;;;5004555;28;20066;-90
2021/01/17 09:16:01;;;;;;;51.50;22.97;;;1.00;91.30;;;;;;5004461;28;20011;-90
2021/01/17 09:18:30;;;;;;;52.70;23.40;;;1.00;90.90;;;;;;5004533;28;20011;-89
2021/01/17 09:20:56;;;;;;;53.47;22.93;;;1.00;90.90;;;;;;5004480;28;20038;-90
2021/01/17 09:23:24;;;;;;;50.47;21.90;;;1.10;90.90;;;;;;5004246;28;20030;-90
2021/01/17 09:26:00;;;;;;;52.97;23.70;;;1.10;90.80;;;;;;5004182;28;20015;-90
2021/01/17 09:28:29;;;;;;;52.50;23.77;;;1.10;90.70;;;;;;5004068;28;20090;-92
2021/01/17 09:30:57;;;;;;;55.67;22.20;;;1.10;90.70;;;;;;5004154;28;20032;-93
2021/01/17 09:33:23;;;;;;;52.63;22.30;;;1.20;90.80;;;;;;5004176;28;20030;-93
2021/01/17 09:35:50;;;;;;;51.17;23.17;;;1.20;90.70;;;;;;5004213;28;20014;-93
2021/01/17 09:38:17;;;;;;;50.87;23.57;;;1.20;90.70;;;;;;5004205;28;20015;-92
2021/01/17 09:40:48;;;;;;;51.53;22.93;;;1.20;90.70;;;;;;5003874;28;20015;-92
2021/01/17 09:43:16;;;;;;;51.60;23.17;;;1.20;90.90;;;;;;5004006;28;20075;-92
2021/01/17 09:45:53;;;;;;;52.40;23.67;;;1.20;90.70;;;;;;5003990;28;20018;-92
2021/01/17 09:48:22;;;;;;;48.90;22.83;;;1.20;90.70;;;;;;5003988;28;20105;-92
2021/01/17 09:50:52;;;;;;;51.23;24.67;;;1.20;90.70;;;;;;5004108;28;20011;-92
2021/01/17 09:53:18;;;;;;;;;;;1.20;90.70;;;;;;5003840;28;20021;-91
2021/01/17 09:55:45;;;;;;;45.40;21.20;;;1.20;91.20;;;;;;5003768;28;19909;-92
2021/01/17 09:58:16;;;;;;;52.83;23.37;;;1.20;90.80;;;;;;5003679;28;20045;-91
2021/01/17 10:00:43;;;;;;;47.97;23.30;;;1.20;91.00;;;;;;5003398;28;20123;-92
2021/01/17 10:03:14;;;;;;;50.07;23.63;;;1.20;90.80;;;;;;5003652;28;20011;-92
2021/01/17 10:05:41;;;;;;;51.90;22.70;;;1.20;90.90;;;;;;5003296;28;20042;-91
2021/01/17 10:08:14;;;;;;;47.77;23.07;;;1.20;90.80;;;;;;5002804;28;20088;-92
2021/01/17 10:10:45;;;;;;;50.47;23.83;;;1.20;90.80;;;;;;5003501;28;20037;-92
2021/01/17 10:13:10;;;;;;;51.97;24.97;;;1.20;91.20;;;;;;5003592;28;20049;-93
2021/01/17 10:15:37;;;;;;;49.77;24.43;;;1.20;90.90;;;;;;5003271;28;20038;-92
2021/01/17 10:18:03;;;;;;;49.57;23.17;;;1.30;91.10;;;;;;5003364;28;20019;-93
2021/01/17 10:20:30;;;;;;;49.27;23.67;;;1.30;91.00;;;;;;5003035;28;20014;-92
2021/01/17 10:23:00;;;;;;;50.47;23.80;;;1.30;91.00;;;;;;5003307;28;20082;-92
2021/01/17 10:25:26;;;;;;;;;;;1.20;90.90;;;;;;5003503;28;20010;-92
2021/01/17 10:28:08;;;;;;;48.70;22.83;;;1.30;91.20;;;;;;5003278;28;19901;-93
2021/01/17 10:30:40;;;;;;;48.50;24.07;;;1.30;90.90;;;;;;5003000;28;20014;-94
2021/01/17 10:33:10;;;;;;;47.70;23.27;;;1.30;91.30;;;;;;5003053;28;20037;-92
2021/01/17 10:35:43;;;;;;;50.13;23.67;;;1.30;91.30;;;;;;5002908;28;20014;-92
2021/01/17 10:38:10;;;;;;;44.10;22.87;;;1.30;91.00;;;;;;5003243;28;20018;-92
2021/01/17 10:40:37;;;;;;;47.53;24.10;;;1.30;91.10;;;;;;5003187;28;20038;-92
2021/01/17 10:43:06;;;;;;;46.13;23.43;;;1.30;91.00;;;;;;5003045;28;20095;-92
2021/01/17 10:45:33;;;;;;;47.53;23.35;;;1.40;90.90;;;;;;5002756;28;20017;-92
2021/01/17 10:48:06;;;;;;;47.77;24.10;;;1.40;90.90;;;;;;5003090;28;20023;-92
2021/01/17 10:50:53;;;;;;;43.57;22.67;;;1.40;91.20;;;;;;5002980;28;20082;-92
2021/01/17 10:53:27;;;;;;;43.43;22.27;;;1.40;90.90;;;;;;5002778;28;20038;-91
2021/01/17 10:55:55;;;;;;;41.77;21.30;;;1.40;91.20;;;;;;5002703;28;20011;-92
2021/01/17 10:58:40;;;;;;;46.47;22.73;;;1.40;91.00;;;;;;5002775;28;20167;-92
2021/01/17 11:01:05;;;;;;;45.00;22.60;;;1.40;90.90;;;;;;5002619;28;20030;-92
2021/01/17 11:03:36;;;;;;;40.90;21.60;;;1.40;90.90;;;;;;5002585;28;20042;-91
2021/01/17 11:06:16;;;;;;;44.13;21.43;;;1.50;90.90;;;;;;5002642;28;20014;-90
2021/01/17 11:08:44;;;;;;;39.37;20.97;;;1.50;91.00;;;;;;5002502;28;20037;-91
2021/01/17 11:11:11;;;;;;;43.83;22.80;;;1.50;91.00;;;;;;5002816;28;20010;-91
2021/01/17 11:13:37;;;;;;;46.27;23.33;;;1.50;91.30;;;;;;5002624;28;20041;-90
2021/01/17 11:16:04;;;;;;;43.77;22.97;;;1.50;91.00;;;;;;5002597;28;20014;-91
2021/01/17 11:18:30;;;;;;;43.10;22.47;;;1.50;91.20;;;;;;5002570;28;20019;-93
2021/01/17 11:21:00;;;;;;;44.73;22.87;;;1.50;91.00;;;;;;5004765;28;20010;-90
2021/01/17 11:23:27;;;;;;;43.93;22.93;;;1.50;91.20;;;;;;5006543;28;20041;-90
2021/01/17 11:26:05;;;;;;;43.03;23.60;;;1.60;91.70;;;;;;5006556;28;20153;-90
2021/01/17 11:28:31;;;;;;;45.27;22.80;;;1.60;91.20;;;;;;5006398;28;20061;-90
2021/01/17 11:31:14;;;;;;;45.03;24.03;;;1.60;91.00;;;;;;5006302;28;20106;-89
2021/01/17 11:33:40;;;;;;;43.87;23.90;;;1.60;91.40;;;;;;5006052;28;20045;-93
2021/01/17 11:36:06;;;;;;;45.03;23.90;;;1.60;91.10;;;;;;5006427;28;20011;-90
2021/01/17 11:39:01;;;;;;;41.57;22.00;;;1.60;91.20;;;;;;5006373;28;20014;-90
2021/01/17 11:41:34;;;;;;;42.43;22.33;;;1.60;91.00;;;;;;4997787;28;20095;-90
2021/01/17 11:44:19;;;;;;;39.87;22.03;;;1.60;91.20;;;;;;5006036;28;20018;-91
2021/01/17 11:46:45;;;;;;;42.77;23.10;;;1.60;90.90;;;;;;5006218;28;20034;-91
2021/01/17 11:49:12;;;;;;;40.50;22.57;;;1.60;91.00;;;;;;5005972;28;20037;-90
2021/01/17 11:51:38;;;;;;;42.87;22.10;;;1.60;90.90;;;;;;5006015;28;20014;-91
2021/01/17 11:54:10;;;;;;;42.43;22.17;;;1.70;90.80;;;;;;5005644;28;20093;-90
2021/01/17 11:56:36;;;;;;;42.47;21.97;;;1.70;90.90;;;;;;5005745;28;20019;-91
2021/01/17 11:59:02;;;;;;;38.67;19.93;;;1.70;90.90;;;;;;5005142;28;20034;-90
2021/01/17 12:01:27;;;;;;;37.40;20.30;;;1.70;90.80;;;;;;5005151;28;20022;-90
2021/01/17 12:04:01;;;;;;;37.80;20.10;;;1.70;90.80;;;;;;5005162;28;20023;-90
2021/01/17 12:06:27;;;;;;;39.87;22.20;;;1.80;90.80;;;;;;5004430;28;20042;-90
2021/01/17 12:08:55;;;;;;;37.93;20.67;;;1.70;91.10;;;;;;5004854;28;20042;-89
2021/01/17 12:11:34;;;;;;;38.07;20.83;;;1.80;91.00;;;;;;5005050;28;20026;-90
2021/01/17 12:14:06;;;;;;;37.53;18.67;;;1.80;90.90;;;;;;5004992;28;20057;-90
2021/01/17 12:16:38;;;;;;;39.60;21.13;;;1.80;91.10;;;;;;5005236;28;20038;-90
2021/01/17 12:19:05;;;;;;;40.37;20.60;;;1.80;90.70;;;;;;5004977;28;20034;-90
2021/01/17 12:21:32;;;;;;;39.37;19.97;;;1.80;90.80;;;;;;5004380;28;20018;-90
2021/01/17 12:23:59;;;;;;;38.60;20.60;;;1.80;90.80;;;;;;5004437;28;20056;-90
2021/01/17 12:26:24;;;;;;;37.87;20.07;;;1.90;90.60;;;;;;5004868;28;20038;-91
2021/01/17 12:28:51;;;;;;;37.90;19.93;;;1.90;90.70;;;;;;5005081;28;20046;-90
2021/01/17 12:31:18;;;;;;;37.03;19.73;;;1.80;90.80;;;;;;5004265;28;20015;-91
2021/01/17 12:33:44;;;;;;;38.77;20.80;;;1.90;90.70;;;;;;5004424;28;20034;-91
2021/01/17 12:36:11;;;;;;;37.87;20.57;;;1.90;91.00;;;;;;5005060;28;20014;-92
2021/01/17 12:38:38;;;;;;;35.67;19.70;;;1.90;90.70;;;;;;5004650;28;20019;-91
2021/01/17 12:41:13;;;;;;;38.27;19.80;;;1.90;90.60;;;;;;5005236;28;20030;-92
2021/01/17 12:43:40;;;;;;;35.60;19.57;;;1.90;90.70;;;;;;5005049;28;20082;-92
2021/01/17 12:46:06;;;;;;;39.33;20.03;;;1.90;90.70;;;;;;5004709;28;20097;-92
2021/01/17 12:48:33;;;;;;;38.83;20.53;;;1.90;90.70;;;;;;5004603;28;20030;-92
2021/01/17 12:50:59;;;;;;;40.50;21.93;;;1.80;90.80;;;;;;5004768;28;20010;-92